createdAt,value
2022-12-18T00:00:11.397Z,60.00
2022-12-18T00:03:39.127Z,64.50
2022-12-18T00:06:45.274Z,50.50
2022-12-18T00:09:50.369Z,70.50
2022-12-18T00:12:54.417Z,84.75
2022-12-18T00:16:04.411Z,54.00
2022-12-18T00:19:11.381Z,52.75
2022-12-18T00:22:21.504Z,58.50
2022-12-18T00:25:25.412Z,56.25
2022-12-18T00:28:30.014Z,56.50
2022-12-18T00:31:34.444Z,44.25
2022-12-18T00:34:39.774Z,54.75
2022-12-18T00:37:45.061Z,54.75
2022-12-18T00:40:51.750Z,45.50
2022-12-18T00:43:54.196Z,56.75
2022-12-18T00:46:58.735Z,45.50
2022-12-18T00:50:02.430Z,47.00
2022-12-18T00:53:09.612Z,36.25
2022-12-18T00:56:16.116Z,49.50
2022-12-18T00:59:21.429Z,46.50
2022-12-18T01:02:28.160Z,58.25
2022-12-18T01:05:34.990Z,46.75
2022-12-18T01:08:40.878Z,61.00
2022-12-18T01:11:44.906Z,48.00
2022-12-18T01:14:48.720Z,49.50
2022-12-18T01:17:54.847Z,51.00
2022-12-18T01:20:59.111Z,54.75
2022-12-18T01:24:05.079Z,55.00
2022-12-18T01:27:08.710Z,44.25
2022-12-18T01:30:14.141Z,48.50
2022-12-18T01:33:18.004Z,63.50
2022-12-18T01:36:24.691Z,59.25
2022-12-18T01:39:29.601Z,48.50
2022-12-18T01:42:35.119Z,68.25
2022-12-18T01:45:39.746Z,55.50
2022-12-18T01:48:47.142Z,54.50
2022-12-18T01:51:50.810Z,34.75
2022-12-18T01:54:58.062Z,47.50
2022-12-18T01:58:03.806Z,45.25
2022-12-18T02:01:07.965Z,46.25
2022-12-18T02:04:23.993Z,41.50
2022-12-18T02:07:57.567Z,51.25
2022-12-18T02:11:09.564Z,62.50
2022-12-18T02:14:22.113Z,53.75
2022-12-18T02:17:37.880Z,48.50
2022-12-18T02:20:49.671Z,45.75
2022-12-18T02:24:04.290Z,42.00
2022-12-18T02:27:15.781Z,37.50
2022-12-18T02:30:20.460Z,39.50
2022-12-18T02:33:29.631Z,43.25
2022-12-18T02:36:38.325Z,42.00
2022-12-18T02:39:46.066Z,38.75
2022-12-18T02:42:56.436Z,40.75
2022-12-18T02:46:23.522Z,50.25
2022-12-18T02:49:48.711Z,40.75
2022-12-18T02:53:07.368Z,42.50
2022-12-18T02:56:18.165Z,44.00
2022-12-18T02:59:30.004Z,43.50
2022-12-18T03:02:42.573Z,48.25
2022-12-18T03:05:56.177Z,44.00
2022-12-18T03:09:03.579Z,40.75
2022-12-18T03:12:25.544Z,45.75
2022-12-18T03:15:39.601Z,38.25
2022-12-18T03:18:51.965Z,41.00
2022-12-18T03:21:59.207Z,45.75
2022-12-18T03:25:06.858Z,47.00
2022-12-18T03:28:18.261Z,39.75
2022-12-18T03:31:28.345Z,32.50
2022-12-18T03:34:36.271Z,51.25
2022-12-18T03:37:43.592Z,38.50
2022-12-18T03:40:59.306Z,39.75
2022-12-18T03:44:14.359Z,51.25
2022-12-18T03:47:30.442Z,37.75
2022-12-18T03:50:48.656Z,40.00
2022-12-18T03:54:00.432Z,53.25
2022-12-18T03:57:20.524Z,38.25
2022-12-18T04:00:29.018Z,43.25
2022-12-18T04:03:46.248Z,41.00
2022-12-18T04:06:53.001Z,27.25
2022-12-18T04:10:03.866Z,37.75
2022-12-18T04:13:08.830Z,46.25
2022-12-18T04:16:13.933Z,44.50
2022-12-18T04:19:22.075Z,39.25
2022-12-18T04:22:28.755Z,34.25
2022-12-18T04:25:36.746Z,38.50
2022-12-18T04:28:48.564Z,47.25
2022-12-18T04:31:54.061Z,42.00
2022-12-18T04:35:00.872Z,44.50
2022-12-18T04:38:06.254Z,41.50
2022-12-18T04:41:10.682Z,42.75
2022-12-18T04:44:14.491Z,47.50
2022-12-18T04:47:18.999Z,42.25
2022-12-18T04:50:25.470Z,41.75
2022-12-18T04:53:29.787Z,37.00
2022-12-18T04:56:34.169Z,45.25
2022-12-18T04:59:39.156Z,40.50
2022-12-18T05:02:42.995Z,49.00
2022-12-18T05:05:51.942Z,44.00
2022-12-18T05:08:55.943Z,47.75
2022-12-18T05:12:00.441Z,47.00
2022-12-18T05:15:08.239Z,38.00
2022-12-18T05:18:13.410Z,61.00
2022-12-18T05:21:19.010Z,72.75
2022-12-18T05:24:24.989Z,69.00
2022-12-18T05:27:28.626Z,49.75
2022-12-18T05:30:35.334Z,45.50
2022-12-18T05:33:39.697Z,54.75
2022-12-18T05:36:50.623Z,40.75
2022-12-18T05:39:54.628Z,66.75
2022-12-18T05:42:59.191Z,49.75
2022-12-18T05:46:07.256Z,73.25
2022-12-18T05:49:11.494Z,39.00
2022-12-18T05:52:16.866Z,50.00
2022-12-18T05:55:20.897Z,45.50
2022-12-18T05:58:24.316Z,35.75
2022-12-18T06:01:29.493Z,52.00
2022-12-18T06:04:33.579Z,63.00
2022-12-18T06:07:39.721Z,92.75
2022-12-18T06:10:44.293Z,54.25
2022-12-18T06:13:57.821Z,47.25
2022-12-18T06:17:02.656Z,42.00
2022-12-18T06:20:08.245Z,73.25
2022-12-18T06:23:14.117Z,41.00
2022-12-18T06:26:24.631Z,59.25
2022-12-18T06:29:31.373Z,71.75
2022-12-18T06:32:36.105Z,75.75
2022-12-18T06:35:39.677Z,43.75
2022-12-18T06:38:46.398Z,67.75
2022-12-18T06:41:50.193Z,47.75
2022-12-18T06:44:55.126Z,47.00
2022-12-18T06:47:58.758Z,77.00
2022-12-18T06:51:03.376Z,74.75
2022-12-18T06:54:09.216Z,48.50
2022-12-18T06:57:13.847Z,64.75
2022-12-18T07:00:17.778Z,65.25
2022-12-18T07:03:22.244Z,73.00
2022-12-18T07:06:28.149Z,63.25
2022-12-18T07:09:33.897Z,41.50
2022-12-18T07:12:38.236Z,83.00
2022-12-18T07:15:42.171Z,53.25
2022-12-18T07:18:51.107Z,69.00
2022-12-18T07:21:55.373Z,68.50
2022-12-18T07:25:01.070Z,85.00
2022-12-18T07:28:05.986Z,69.25
2022-12-18T07:31:15.348Z,46.00
2022-12-18T07:34:19.440Z,65.25
2022-12-18T07:37:23.291Z,58.00
2022-12-18T07:40:29.797Z,75.25
2022-12-18T07:43:33.859Z,61.50
2022-12-18T07:46:37.873Z,52.00
2022-12-18T07:49:47.061Z,60.25
2022-12-18T07:52:51.552Z,45.75
2022-12-18T07:56:25.897Z,58.00
2022-12-18T07:59:24.940Z,106.67
2022-12-18T08:02:28.954Z,58.00
2022-12-18T08:05:33.549Z,56.50
2022-12-18T08:08:37.692Z,74.00
2022-12-18T08:11:46.449Z,44.25
2022-12-18T08:14:50.101Z,75.75
2022-12-18T08:17:54.338Z,74.00
2022-12-18T08:20:58.841Z,67.00
2022-12-18T08:24:04.245Z,167.75
2022-12-18T08:27:29.043Z,68.00
2022-12-18T08:30:38.157Z,89.50
2022-12-18T08:33:43.590Z,59.75
2022-12-18T08:36:48.246Z,66.00
2022-12-18T08:39:55.045Z,63.00
2022-12-18T08:43:19.941Z,62.50
2022-12-18T08:46:26.639Z,92.67
2022-12-18T08:49:36.740Z,64.75
2022-12-18T08:52:48.318Z,78.00
2022-12-18T08:55:54.154Z,62.25
2022-12-18T08:59:03.296Z,79.75
2022-12-18T09:02:08.750Z,99.00
2022-12-18T09:05:12.800Z,87.50
2022-12-18T09:08:17.079Z,40.25
2022-12-18T09:11:23.951Z,68.25
2022-12-18T09:14:29.957Z,65.00
2022-12-18T09:17:33.941Z,70.75
2022-12-18T09:20:38.449Z,95.00
2022-12-18T09:23:43.728Z,96.67
2022-12-18T09:26:47.915Z,93.25
2022-12-18T09:29:53.567Z,55.75
2022-12-18T09:32:58.168Z,45.50
2022-12-18T09:36:04.150Z,70.50
2022-12-18T09:39:09.050Z,95.00
2022-12-18T09:42:20.333Z,67.25
2022-12-18T09:45:28.812Z,61.50
2022-12-18T09:48:39.816Z,53.00
2022-12-18T09:51:49.702Z,76.25
2022-12-18T09:54:59.376Z,60.25
2022-12-18T09:58:09.148Z,72.50
2022-12-18T10:01:17.526Z,76.50
2022-12-18T10:04:22.251Z,75.50
2022-12-18T10:07:34.979Z,56.00
2022-12-18T10:10:46.177Z,74.25
2022-12-18T10:13:58.257Z,78.75
2022-12-18T10:17:16.973Z,54.00
2022-12-18T10:20:30.778Z,48.25
2022-12-18T10:23:46.568Z,59.25
2022-12-18T10:26:54.666Z,50.00
2022-12-18T10:30:00.947Z,70.00
2022-12-18T10:33:06.511Z,63.75
2022-12-18T10:36:11.146Z,74.00
2022-12-18T10:39:22.400Z,74.50
2022-12-18T10:42:30.505Z,62.25
2022-12-18T10:45:34.665Z,62.00
2022-12-18T10:48:49.523Z,81.00
2022-12-18T10:51:55.480Z,62.50
2022-12-18T10:55:06.113Z,64.00
2022-12-18T10:58:26.768Z,56.25
2022-12-18T11:01:48.626Z,69.25
2022-12-18T11:04:54.998Z,68.50
2022-12-18T11:08:01.104Z,78.50
2022-12-18T11:11:05.365Z,56.50
2022-12-18T11:14:22.055Z,52.75
2022-12-18T11:17:33.802Z,73.50
2022-12-18T11:20:41.627Z,63.50
2022-12-18T11:23:54.028Z,66.25
2022-12-18T11:26:59.992Z,53.50
2022-12-18T11:30:12.134Z,70.50
2022-12-18T11:33:23.241Z,64.25
2022-12-18T11:36:38.953Z,59.75
2022-12-18T11:39:50.285Z,51.50
2022-12-18T11:43:02.034Z,74.25
2022-12-18T11:46:13.485Z,80.25
2022-12-18T11:49:36.022Z,62.25
2022-12-18T11:53:13.815Z,54.75
2022-12-18T11:56:34.129Z,49.25
2022-12-18T11:59:50.816Z,52.50
2022-12-18T12:03:23.630Z,53.50
2022-12-18T12:06:49.853Z,68.75
2022-12-18T12:10:12.290Z,70.75
2022-12-18T12:13:30.372Z,86.50
2022-12-18T12:16:41.163Z,61.50
2022-12-18T12:20:00.163Z,81.25
2022-12-18T12:23:16.265Z,60.00
2022-12-18T12:26:30.081Z,64.00
2022-12-18T12:29:49.352Z,71.25
2022-12-18T12:33:12.355Z,45.50
2022-12-18T12:36:26.370Z,62.00
2022-12-18T12:39:37.230Z,67.50
2022-12-18T12:43:13.570Z,63.50
2022-12-18T12:46:27.319Z,64.25
2022-12-18T12:49:40.774Z,52.75
2022-12-18T12:52:55.765Z,83.00
2022-12-18T12:56:02.099Z,95.00
2022-12-18T12:59:18.866Z,47.50
2022-12-18T13:02:31.362Z,46.25
2022-12-18T13:05:46.014Z,47.75
2022-12-18T13:08:58.972Z,80.00
2022-12-18T13:12:23.175Z,89.00
2022-12-18T13:15:36.718Z,57.25
2022-12-18T13:18:51.542Z,54.50
2022-12-18T13:21:58.177Z,67.75
2022-12-18T13:25:02.922Z,65.00
2022-12-18T13:28:10.813Z,54.75
2022-12-18T13:31:37.653Z,60.25
2022-12-18T13:34:43.018Z,63.00
2022-12-18T13:37:54.506Z,78.33
2022-12-18T13:41:00.529Z,89.00
2022-12-18T13:44:15.074Z,115.67
2022-12-18T13:47:30.498Z,109.67
2022-12-18T13:50:44.796Z,92.33
2022-12-18T13:53:54.305Z,270.75
2022-12-18T13:56:58.136Z,107.67
2022-12-18T14:00:31.374Z,87.00
2022-12-18T14:03:35.036Z,103.67
2022-12-18T14:06:41.548Z,78.25
2022-12-18T14:09:50.038Z,86.25
2022-12-18T14:13:00.957Z,93.75
2022-12-18T14:16:10.556Z,91.25
2022-12-18T14:19:18.118Z,69.50
2022-12-18T14:22:28.940Z,68.25
2022-12-18T14:25:34.647Z,62.25
2022-12-18T14:28:46.151Z,60.25
2022-12-18T14:32:14.976Z,71.50
2022-12-18T14:35:21.042Z,224.75
2022-12-18T14:38:32.849Z,78.50
2022-12-18T14:41:37.675Z,101.33
2022-12-18T14:45:05.036Z,101.33
2022-12-18T14:48:11.454Z,73.50
2022-12-18T14:51:22.262Z,72.25
2022-12-18T14:54:30.472Z,74.25
2022-12-18T14:57:39.149Z,109.00
2022-12-18T15:00:45.128Z,97.33
2022-12-18T15:03:49.292Z,109.67
2022-12-18T15:07:06.055Z,103.00
2022-12-18T15:10:16.955Z,87.67
2022-12-18T15:13:25.829Z,64.25
2022-12-18T15:16:31.109Z,107.33
2022-12-18T15:19:41.734Z,94.33
2022-12-18T15:22:53.072Z,95.67
2022-12-18T15:26:01.633Z,93.33
2022-12-18T15:29:11.335Z,91.25
2022-12-18T15:32:23.132Z,101.67
2022-12-18T15:35:28.513Z,110.00
2022-12-18T15:38:33.160Z,94.67
2022-12-18T15:41:39.085Z,100.67
2022-12-18T15:44:45.681Z,133.33
2022-12-18T15:47:51.442Z,105.67
2022-12-18T15:50:59.812Z,184.25
2022-12-18T15:54:15.001Z,109.33
2022-12-18T15:57:24.265Z,107.33
2022-12-18T16:00:28.928Z,96.67
2022-12-18T16:03:32.983Z,88.50
2022-12-18T16:07:05.314Z,82.25
2022-12-18T16:10:04.167Z,130.00
2022-12-18T16:13:12.554Z,97.00
2022-12-18T16:16:16.136Z,89.00
2022-12-18T16:19:20.066Z,105.00
2022-12-18T16:22:25.563Z,100.00
2022-12-18T16:25:40.146Z,113.33
2022-12-18T16:28:48.403Z,142.33
2022-12-18T16:31:54.501Z,93.25
2022-12-18T16:35:02.509Z,84.00
2022-12-18T16:38:15.311Z,83.00
2022-12-18T16:41:33.754Z,91.50
2022-12-18T16:44:39.626Z,153.33
2022-12-18T16:47:43.192Z,103.33
2022-12-18T16:50:47.211Z,99.25
2022-12-18T16:53:53.421Z,99.67
2022-12-18T16:56:57.843Z,102.00
2022-12-18T17:00:05.901Z,81.75
2022-12-18T17:03:11.085Z,101.00
2022-12-18T17:06:17.174Z,103.00
2022-12-18T17:09:25.657Z,101.33
2022-12-18T17:12:29.800Z,107.00
2022-12-18T17:15:38.524Z,98.00
2022-12-18T17:18:46.012Z,89.25
2022-12-18T17:21:51.928Z,85.75
2022-12-18T17:24:55.561Z,87.50
2022-12-18T17:28:00.590Z,83.75
2022-12-18T17:31:14.947Z,98.33
2022-12-18T17:34:22.226Z,72.00
2022-12-18T17:37:27.091Z,59.25
2022-12-18T17:40:31.394Z,78.00
2022-12-18T17:43:36.048Z,88.67
2022-12-18T17:46:44.917Z,77.50
2022-12-18T17:49:53.191Z,84.75
2022-12-18T17:53:00.866Z,59.00
2022-12-18T17:56:07.562Z,76.00
2022-12-18T17:59:12.726Z,83.25
2022-12-18T18:02:19.451Z,96.33
2022-12-18T18:05:23.760Z,93.75
2022-12-18T18:08:29.923Z,68.75
2022-12-18T18:11:51.112Z,86.50
2022-12-18T18:14:56.662Z,69.25
2022-12-18T18:18:03.605Z,62.75
2022-12-18T18:21:09.466Z,73.25
2022-12-18T18:24:16.127Z,67.25
2022-12-18T18:27:19.966Z,63.50
2022-12-18T18:30:23.917Z,75.50
2022-12-18T18:33:29.338Z,69.75
2022-12-18T18:36:34.707Z,62.50
2022-12-18T18:39:39.247Z,66.50
2022-12-18T18:42:44.985Z,62.00
2022-12-18T18:45:50.190Z,72.00
2022-12-18T18:48:56.958Z,83.25
2022-12-18T18:52:04.102Z,85.25
2022-12-18T18:55:20.052Z,75.50
2022-12-18T18:58:31.307Z,85.50
2022-12-18T19:01:35.639Z,107.67
2022-12-18T19:04:46.700Z,158.33
2022-12-18T19:07:54.797Z,74.25
2022-12-18T19:11:00.486Z,87.25
2022-12-18T19:14:16.073Z,107.33
2022-12-18T19:17:34.685Z,150.67
2022-12-18T19:21:27.941Z,110.33
2022-12-18T19:24:49.761Z,257.25
2022-12-18T19:28:21.293Z,84.67
2022-12-18T19:31:31.817Z,36.75
2022-12-18T19:34:38.767Z,42.25
2022-12-18T19:37:44.450Z,84.75
2022-12-18T19:40:49.222Z,52.50
2022-12-18T19:43:53.978Z,92.25
2022-12-18T19:47:02.980Z,83.25
2022-12-18T19:50:08.494Z,88.00
2022-12-18T19:53:14.208Z,166.50
2022-12-18T19:56:21.557Z,148.67
2022-12-18T19:59:25.327Z,119.67
2022-12-18T20:02:31.465Z,140.67
2022-12-18T20:05:35.325Z,99.33
2022-12-18T20:08:42.085Z,134.33
2022-12-18T20:11:46.288Z,123.67
2022-12-18T20:14:50.707Z,117.67
2022-12-18T20:17:54.526Z,118.00
2022-12-18T20:20:58.874Z,100.33
2022-12-18T20:24:07.450Z,88.00
2022-12-18T20:27:17.104Z,107.67
2022-12-18T20:30:23.437Z,85.00
2022-12-18T20:33:28.006Z,115.67
2022-12-18T20:36:33.043Z,124.33
2022-12-18T20:39:44.073Z,89.67
2022-12-18T20:42:58.767Z,76.75
2022-12-18T20:46:04.212Z,94.33
2022-12-18T20:49:07.954Z,101.00
2022-12-18T20:52:13.625Z,88.25
2022-12-18T20:55:19.608Z,99.33
2022-12-18T20:58:23.979Z,110.33
2022-12-18T21:01:32.846Z,164.00
2022-12-18T21:04:37.366Z,137.33
2022-12-18T21:07:41.779Z,116.67
2022-12-18T21:10:47.435Z,130.00
2022-12-18T21:13:51.653Z,188.25
2022-12-18T21:16:56.517Z,110.00
2022-12-18T21:20:00.822Z,171.00
2022-12-18T21:23:15.825Z,140.33
2022-12-18T21:26:32.180Z,107.00
2022-12-18T21:29:38.539Z,105.00
2022-12-18T21:33:00.789Z,109.33
2022-12-18T21:36:05.695Z,114.67
2022-12-18T21:39:10.890Z,97.00
2022-12-18T21:42:36.650Z,13.33
2022-12-18T21:45:40.280Z,89.67
2022-12-18T21:48:48.105Z,81.00
2022-12-18T21:51:53.993Z,98.67
2022-12-18T21:55:00.653Z,91.00
2022-12-18T21:58:09.854Z,96.33
2022-12-18T22:01:15.195Z,84.50
2022-12-18T22:04:20.126Z,85.00
2022-12-18T22:07:26.869Z,87.00
2022-12-18T22:10:31.571Z,85.00
2022-12-18T22:13:37.945Z,89.50
2022-12-18T22:16:41.902Z,82.00
2022-12-18T22:19:47.361Z,87.75
2022-12-18T22:22:52.109Z,85.50
2022-12-18T22:25:55.981Z,88.50
2022-12-18T22:29:19.520Z,86.33
2022-12-18T22:32:31.462Z,87.50
2022-12-18T22:35:35.787Z,92.00
2022-12-18T22:38:39.729Z,115.00
2022-12-18T22:41:44.169Z,99.67
2022-12-18T22:44:50.371Z,86.33
2022-12-18T22:47:55.003Z,108.00
2022-12-18T22:50:59.496Z,111.00
2022-12-18T22:54:03.479Z,175.25
2022-12-18T22:57:08.135Z,158.75
2022-12-18T23:00:15.747Z,136.67
2022-12-18T23:03:21.649Z,102.00
2022-12-18T23:06:27.639Z,79.75
2022-12-18T23:09:32.486Z,106.67
2022-12-18T23:12:37.624Z,139.00
2022-12-18T23:15:48.986Z,134.67
2022-12-18T23:18:56.974Z,104.67
2022-12-18T23:22:03.503Z,109.00
2022-12-18T23:25:10.988Z,116.00
2022-12-18T23:28:15.081Z,122.33
2022-12-18T23:31:23.646Z,104.00
2022-12-18T23:34:27.929Z,92.67
2022-12-18T23:37:57.464Z,85.50
2022-12-18T23:40:56.496Z,94.33
2022-12-18T23:44:03.402Z,72.75
2022-12-18T23:47:08.730Z,63.00
2022-12-18T23:50:12.563Z,56.50
2022-12-18T23:53:16.896Z,66.00
2022-12-18T23:56:21.304Z,42.25
2022-12-18T23:59:25.716Z,50.75
